sensor_id;sensor_type;location;lat;lon;timestamp;temperature;humidity
35027;DHT22;60696;51.426;6.934;2022-07-17T00:01:33;14.30;99.90
35027;DHT22;60696;51.426;6.934;2022-07-17T00:03:58;13.90;99.90
35027;DHT22;60696;51.426;6.934;2022-07-17T00:06:24;13.80;99.90
35027;DHT22;60696;51.426;6.934;2022-07-17T00:08:50;13.60;99.90
35027;DHT22;60696;51.426;6.934;2022-07-17T00:11:15;13.40;99.90
35027;DHT22;60696;51.426;6.934;2022-07-17T00:13:41;13.40;99.90
35027;DHT22;60696;51.426;6.934;2022-07-17T00:16:07;13.30;99.90
35027;DHT22;60696;51.426;6.934;2022-07-17T00:18:32;13.50;99.90
35027;DHT22;60696;51.426;6.934;2022-07-17T00:20:58;13.60;99.90
35027;DHT22;60696;51.426;6.934;2022-07-17T00:23:24;13.80;99.90
35027;DHT22;60696;51.426;6.934;2022-07-17T00:25:50;14.00;99.90
35027;DHT22;60696;51.426;6.934;2022-07-17T00:28:15;13.90;99.90
35027;DHT22;60696;51.426;6.934;2022-07-17T00:30:41;13.70;99.90
35027;DHT22;60696;51.426;6.934;2022-07-17T00:33:07;13.50;99.90
35027;DHT22;60696;51.426;6.934;2022-07-17T00:35:32;13.20;99.90
35027;DHT22;60696;51.426;6.934;2022-07-17T00:37:58;13.20;99.90
35027;DHT22;60696;51.426;6.934;2022-07-17T00:40:24;13.50;99.90
35027;DHT22;60696;51.426;6.934;2022-07-17T00:42:51;14.00;99.90
35027;DHT22;60696;51.426;6.934;2022-07-17T00:45:17;14.00;99.90
35027;DHT22;60696;51.426;6.934;2022-07-17T00:50:14;13.90;99.90
35027;DHT22;60696;51.426;6.934;2022-07-17T00:52:40;14.00;99.90
35027;DHT22;60696;51.426;6.934;2022-07-17T00:55:06;14.20;99.90
35027;DHT22;60696;51.426;6.934;2022-07-17T00:57:33;14.40;99.90
35027;DHT22;60696;51.426;6.934;2022-07-17T00:59:59;14.30;99.90
35027;DHT22;60696;51.426;6.934;2022-07-17T01:02:24;14.10;99.90
35027;DHT22;60696;51.426;6.934;2022-07-17T01:04:50;14.20;99.90
35027;DHT22;60696;51.426;6.934;2022-07-17T01:07:16;14.30;99.90
35027;DHT22;60696;51.426;6.934;2022-07-17T01:09:42;14.30;99.90
35027;DHT22;60696;51.426;6.934;2022-07-17T01:12:08;14.20;99.90
35027;DHT22;60696;51.426;6.934;2022-07-17T01:14:34;14.00;99.90
35027;DHT22;60696;51.426;6.934;2022-07-17T01:17:01;13.90;99.90
35027;DHT22;60696;51.426;6.934;2022-07-17T01:19:27;13.90;99.90
35027;DHT22;60696;51.426;6.934;2022-07-17T01:21:52;13.70;99.90
35027;DHT22;60696;51.426;6.934;2022-07-17T01:24:18;13.70;99.90
35027;DHT22;60696;51.426;6.934;2022-07-17T01:26:47;13.70;99.90
35027;DHT22;60696;51.426;6.934;2022-07-17T01:29:14;13.80;99.90
35027;DHT22;60696;51.426;6.934;2022-07-17T01:31:41;13.70;99.90
35027;DHT22;60696;51.426;6.934;2022-07-17T01:34:08;13.80;99.90
35027;DHT22;60696;51.426;6.934;2022-07-17T01:36:34;13.80;99.90
35027;DHT22;60696;51.426;6.934;2022-07-17T01:39:00;13.60;99.90
35027;DHT22;60696;51.426;6.934;2022-07-17T01:41:26;13.40;99.90
35027;DHT22;60696;51.426;6.934;2022-07-17T01:43:52;13.50;99.90
35027;DHT22;60696;51.426;6.934;2022-07-17T01:46:17;13.40;99.90
35027;DHT22;60696;51.426;6.934;2022-07-17T01:48:43;13.30;99.90
35027;DHT22;60696;51.426;6.934;2022-07-17T01:51:09;13.40;99.90
35027;DHT22;60696;51.426;6.934;2022-07-17T01:53:34;13.40;99.90
35027;DHT22;60696;51.426;6.934;2022-07-17T01:56:00;13.30;99.90
35027;DHT22;60696;51.426;6.934;2022-07-17T01:58:26;13.30;99.90
35027;DHT22;60696;51.426;6.934;2022-07-17T02:00:52;13.20;99.90
35027;DHT22;60696;51.426;6.934;2022-07-17T02:03:18;13.20;99.90
35027;DHT22;60696;51.426;6.934;2022-07-17T02:05:44;13.20;99.90
35027;DHT22;60696;51.426;6.934;2022-07-17T02:08:10;13.30;99.90
35027;DHT22;60696;51.426;6.934;2022-07-17T02:10:36;13.30;99.90
35027;DHT22;60696;51.426;6.934;2022-07-17T02:13:01;13.30;99.90
35027;DHT22;60696;51.426;6.934;2022-07-17T02:15:27;13.20;99.90
35027;DHT22;60696;51.426;6.934;2022-07-17T02:17:53;13.20;99.90
35027;DHT22;60696;51.426;6.934;2022-07-17T02:20:19;13.30;99.90
35027;DHT22;60696;51.426;6.934;2022-07-17T02:22:44;13.30;99.90
35027;DHT22;60696;51.426;6.934;2022-07-17T02:25:11;13.20;99.90
35027;DHT22;60696;51.426;6.934;2022-07-17T02:27:38;13.20;99.90
35027;DHT22;60696;51.426;6.934;2022-07-17T02:30:07;13.10;99.90
35027;DHT22;60696;51.426;6.934;2022-07-17T02:32:33;13.00;99.90
35027;DHT22;60696;51.426;6.934;2022-07-17T02:34:59;13.00;99.90
35027;DHT22;60696;51.426;6.934;2022-07-17T02:37:24;13.00;99.90
35027;DHT22;60696;51.426;6.934;2022-07-17T02:39:50;12.90;99.90
35027;DHT22;60696;51.426;6.934;2022-07-17T02:42:23;12.80;99.90
35027;DHT22;60696;51.426;6.934;2022-07-17T02:44:49;12.80;99.90
35027;DHT22;60696;51.426;6.934;2022-07-17T02:47:28;12.80;99.90
35027;DHT22;60696;51.426;6.934;2022-07-17T02:49:54;12.80;99.90
35027;DHT22;60696;51.426;6.934;2022-07-17T02:52:20;12.80;99.90
35027;DHT22;60696;51.426;6.934;2022-07-17T02:54:46;12.80;99.90
35027;DHT22;60696;51.426;6.934;2022-07-17T02:57:12;12.70;99.90
35027;DHT22;60696;51.426;6.934;2022-07-17T02:59:38;12.80;99.90
35027;DHT22;60696;51.426;6.934;2022-07-17T03:02:04;12.70;99.90
35027;DHT22;60696;51.426;6.934;2022-07-17T03:04:30;12.70;99.90
35027;DHT22;60696;51.426;6.934;2022-07-17T03:06:55;12.70;99.90
35027;DHT22;60696;51.426;6.934;2022-07-17T03:09:21;12.70;99.90
35027;DHT22;60696;51.426;6.934;2022-07-17T03:11:47;12.60;99.90
35027;DHT22;60696;51.426;6.934;2022-07-17T03:14:12;12.60;99.90
35027;DHT22;60696;51.426;6.934;2022-07-17T03:16:38;12.50;99.90
35027;DHT22;60696;51.426;6.934;2022-07-17T03:19:04;12.50;99.90
35027;DHT22;60696;51.426;6.934;2022-07-17T03:21:29;12.50;99.90
35027;DHT22;60696;51.426;6.934;2022-07-17T03:23:55;12.50;99.90
35027;DHT22;60696;51.426;6.934;2022-07-17T03:26:20;12.40;99.90
35027;DHT22;60696;51.426;6.934;2022-07-17T03:28:46;12.40;99.90
35027;DHT22;60696;51.426;6.934;2022-07-17T03:31:12;12.40;99.90
35027;DHT22;60696;51.426;6.934;2022-07-17T03:33:37;12.40;99.90
35027;DHT22;60696;51.426;6.934;2022-07-17T03:36:03;12.40;99.90
35027;DHT22;60696;51.426;6.934;2022-07-17T03:38:29;12.30;99.90
35027;DHT22;60696;51.426;6.934;2022-07-17T03:40:54;12.30;99.90
35027;DHT22;60696;51.426;6.934;2022-07-17T03:43:20;12.40;99.90
35027;DHT22;60696;51.426;6.934;2022-07-17T03:45:45;12.30;99.90
35027;DHT22;60696;51.426;6.934;2022-07-17T03:48:11;12.30;99.90
35027;DHT22;60696;51.426;6.934;2022-07-17T03:50:37;12.30;99.90
35027;DHT22;60696;51.426;6.934;2022-07-17T03:53:02;12.30;99.90
35027;DHT22;60696;51.426;6.934;2022-07-17T03:55:28;12.30;99.90
35027;DHT22;60696;51.426;6.934;2022-07-17T03:57:53;12.30;99.90
35027;DHT22;60696;51.426;6.934;2022-07-17T04:00:19;12.30;99.90
35027;DHT22;60696;51.426;6.934;2022-07-17T04:02:45;12.30;99.90
35027;DHT22;60696;51.426;6.934;2022-07-17T04:05:11;12.30;99.90
35027;DHT22;60696;51.426;6.934;2022-07-17T04:07:38;12.30;99.90
35027;DHT22;60696;51.426;6.934;2022-07-17T04:10:05;12.40;99.90
35027;DHT22;60696;51.426;6.934;2022-07-17T04:12:31;12.40;99.90
35027;DHT22;60696;51.426;6.934;2022-07-17T04:14:57;12.40;99.90
35027;DHT22;60696;51.426;6.934;2022-07-17T04:17:23;12.50;99.90
35027;DHT22;60696;51.426;6.934;2022-07-17T04:19:49;12.60;99.90
35027;DHT22;60696;51.426;6.934;2022-07-17T04:22:14;12.60;99.90
35027;DHT22;60696;51.426;6.934;2022-07-17T04:24:40;12.70;99.90
35027;DHT22;60696;51.426;6.934;2022-07-17T04:27:06;12.60;99.90
35027;DHT22;60696;51.426;6.934;2022-07-17T04:29:32;12.70;99.90
35027;DHT22;60696;51.426;6.934;2022-07-17T04:31:58;12.80;99.90
35027;DHT22;60696;51.426;6.934;2022-07-17T04:34:24;12.80;99.90
35027;DHT22;60696;51.426;6.934;2022-07-17T04:36:50;12.90;99.90
35027;DHT22;60696;51.426;6.934;2022-07-17T04:39:15;13.00;99.90
35027;DHT22;60696;51.426;6.934;2022-07-17T04:41:41;13.10;99.90
35027;DHT22;60696;51.426;6.934;2022-07-17T04:44:07;13.10;99.90
35027;DHT22;60696;51.426;6.934;2022-07-17T04:46:33;13.20;99.90
35027;DHT22;60696;51.426;6.934;2022-07-17T04:48:58;13.40;99.90
35027;DHT22;60696;51.426;6.934;2022-07-17T04:51:24;13.90;99.90
35027;DHT22;60696;51.426;6.934;2022-07-17T04:53:50;14.60;99.90
35027;DHT22;60696;51.426;6.934;2022-07-17T04:56:15;15.50;99.90
35027;DHT22;60696;51.426;6.934;2022-07-17T04:58:41;16.30;99.90
35027;DHT22;60696;51.426;6.934;2022-07-17T05:01:06;16.80;99.90
35027;DHT22;60696;51.426;6.934;2022-07-17T05:03:32;17.60;99.90
35027;DHT22;60696;51.426;6.934;2022-07-17T05:05:58;17.90;99.90
35027;DHT22;60696;51.426;6.934;2022-07-17T05:08:23;17.80;99.90
35027;DHT22;60696;51.426;6.934;2022-07-17T05:10:49;17.80;99.90
35027;DHT22;60696;51.426;6.934;2022-07-17T05:13:14;18.00;99.90
35027;DHT22;60696;51.426;6.934;2022-07-17T05:15:40;18.10;99.90
35027;DHT22;60696;51.426;6.934;2022-07-17T05:18:06;18.10;99.90
35027;DHT22;60696;51.426;6.934;2022-07-17T05:20:32;18.30;99.90
35027;DHT22;60696;51.426;6.934;2022-07-17T05:22:57;18.60;99.90
35027;DHT22;60696;51.426;6.934;2022-07-17T05:25:23;19.40;99.90
35027;DHT22;60696;51.426;6.934;2022-07-17T05:27:48;20.00;99.90
35027;DHT22;60696;51.426;6.934;2022-07-17T05:30:14;19.80;99.70
35027;DHT22;60696;51.426;6.934;2022-07-17T05:32:40;20.30;99.40
35027;DHT22;60696;51.426;6.934;2022-07-17T05:35:06;19.70;99.30
35027;DHT22;60696;51.426;6.934;2022-07-17T05:37:31;19.90;99.40
35027;DHT22;60696;51.426;6.934;2022-07-17T05:39:57;20.40;98.50
35027;DHT22;60696;51.426;6.934;2022-07-17T05:42:23;21.00;97.40
35027;DHT22;60696;51.426;6.934;2022-07-17T05:44:48;21.50;95.80
35027;DHT22;60696;51.426;6.934;2022-07-17T05:47:14;21.60;95.40
35027;DHT22;60696;51.426;6.934;2022-07-17T05:49:39;21.70;94.40
35027;DHT22;60696;51.426;6.934;2022-07-17T05:52:05;21.40;95.00
35027;DHT22;60696;51.426;6.934;2022-07-17T05:54:31;21.60;94.80
35027;DHT22;60696;51.426;6.934;2022-07-17T05:57:00;22.20;93.70
35027;DHT22;60696;51.426;6.934;2022-07-17T05:59:26;22.20;92.90
35027;DHT22;60696;51.426;6.934;2022-07-17T06:01:52;21.60;93.30
35027;DHT22;60696;51.426;6.934;2022-07-17T06:04:17;23.40;93.40
35027;DHT22;60696;51.426;6.934;2022-07-17T06:06:43;25.10;89.40
35027;DHT22;60696;51.426;6.934;2022-07-17T06:09:09;24.80;84.20
35027;DHT22;60696;51.426;6.934;2022-07-17T06:11:35;24.40;85.30
35027;DHT22;60696;51.426;6.934;2022-07-17T06:14:00;24.00;83.30
35027;DHT22;60696;51.426;6.934;2022-07-17T06:16:26;22.40;87.30
35027;DHT22;60696;51.426;6.934;2022-07-17T06:18:52;22.60;89.70
35027;DHT22;60696;51.426;6.934;2022-07-17T06:21:17;23.70;88.30
35027;DHT22;60696;51.426;6.934;2022-07-17T06:23:43;24.70;82.90
35027;DHT22;60696;51.426;6.934;2022-07-17T06:26:09;26.00;80.80
35027;DHT22;60696;51.426;6.934;2022-07-17T06:28:34;26.10;77.90
35027;DHT22;60696;51.426;6.934;2022-07-17T06:31:00;24.90;79.00
35027;DHT22;60696;51.426;6.934;2022-07-17T06:33:26;26.10;81.80
35027;DHT22;60696;51.426;6.934;2022-07-17T06:35:52;28.40;75.40
35027;DHT22;60696;51.426;6.934;2022-07-17T06:38:17;27.40;71.90
35027;DHT22;60696;51.426;6.934;2022-07-17T06:40:43;28.50;72.40
35027;DHT22;60696;51.426;6.934;2022-07-17T06:43:09;30.80;69.40
35027;DHT22;60696;51.426;6.934;2022-07-17T06:45:35;30.10;67.60
35027;DHT22;60696;51.426;6.934;2022-07-17T06:48:01;32.20;63.20
35027;DHT22;60696;51.426;6.934;2022-07-17T06:50:27;30.70;62.90
35027;DHT22;60696;51.426;6.934;2022-07-17T06:52:53;31.70;61.90
35027;DHT22;60696;51.426;6.934;2022-07-17T06:55:18;30.00;63.70
35027;DHT22;60696;51.426;6.934;2022-07-17T06:57:44;31.10;62.60
35027;DHT22;60696;51.426;6.934;2022-07-17T07:00:10;32.20;61.10
35027;DHT22;60696;51.426;6.934;2022-07-17T07:02:37;32.80;59.30
35027;DHT22;60696;51.426;6.934;2022-07-17T07:05:03;35.20;56.60
35027;DHT22;60696;51.426;6.934;2022-07-17T07:07:30;35.30;54.20
35027;DHT22;60696;51.426;6.934;2022-07-17T07:09:55;32.30;56.50
35027;DHT22;60696;51.426;6.934;2022-07-17T07:12:21;31.70;57.50
35027;DHT22;60696;51.426;6.934;2022-07-17T07:14:46;33.40;55.80
35027;DHT22;60696;51.426;6.934;2022-07-17T07:17:12;35.40;53.70
35027;DHT22;60696;51.426;6.934;2022-07-17T07:19:38;33.30;53.10
35027;DHT22;60696;51.426;6.934;2022-07-17T07:22:03;30.10;56.80
35027;DHT22;60696;51.426;6.934;2022-07-17T07:24:29;33.10;56.20
35027;DHT22;60696;51.426;6.934;2022-07-17T07:26:54;33.80;54.90
35027;DHT22;60696;51.426;6.934;2022-07-17T07:29:20;33.50;51.50
35027;DHT22;60696;51.426;6.934;2022-07-17T07:31:46;31.20;53.70
35027;DHT22;60696;51.426;6.934;2022-07-17T07:34:13;33.30;53.70
35027;DHT22;60696;51.426;6.934;2022-07-17T07:36:39;33.00;50.50
35027;DHT22;60696;51.426;6.934;2022-07-17T07:39:04;29.90;55.20
35027;DHT22;60696;51.426;6.934;2022-07-17T07:41:30;29.00;57.10
35027;DHT22;60696;51.426;6.934;2022-07-17T07:43:56;31.90;56.00
35027;DHT22;60696;51.426;6.934;2022-07-17T07:46:21;34.10;53.70
35027;DHT22;60696;51.426;6.934;2022-07-17T07:48:47;36.00;50.90
35027;DHT22;60696;51.426;6.934;2022-07-17T07:51:13;35.10;49.80
35027;DHT22;60696;51.426;6.934;2022-07-17T07:53:38;34.80;49.90
35027;DHT22;60696;51.426;6.934;2022-07-17T07:56:04;34.40;51.70
35027;DHT22;60696;51.426;6.934;2022-07-17T07:58:30;35.70;48.50
35027;DHT22;60696;51.426;6.934;2022-07-17T08:00:55;36.10;48.20
35027;DHT22;60696;51.426;6.934;2022-07-17T08:03:21;35.10;49.40
35027;DHT22;60696;51.426;6.934;2022-07-17T08:05:47;34.40;50.30
35027;DHT22;60696;51.426;6.934;2022-07-17T08:08:12;35.00;49.30
35027;DHT22;60696;51.426;6.934;2022-07-17T08:10:38;34.20;49.40
35027;DHT22;60696;51.426;6.934;2022-07-17T08:13:04;33.50;50.60
35027;DHT22;60696;51.426;6.934;2022-07-17T08:15:29;31.10;50.10
35027;DHT22;60696;51.426;6.934;2022-07-17T08:17:55;30.90;52.60
35027;DHT22;60696;51.426;6.934;2022-07-17T08:20:21;33.60;50.50
35027;DHT22;60696;51.426;6.934;2022-07-17T08:22:49;34.20;50.10
35027;DHT22;60696;51.426;6.934;2022-07-17T08:25:15;32.80;50.50
35027;DHT22;60696;51.426;6.934;2022-07-17T08:27:42;33.00;50.20
35027;DHT22;60696;51.426;6.934;2022-07-17T08:30:10;30.40;51.30
35027;DHT22;60696;51.426;6.934;2022-07-17T08:32:37;32.90;51.00
35027;DHT22;60696;51.426;6.934;2022-07-17T08:35:04;33.20;49.60
35027;DHT22;60696;51.426;6.934;2022-07-17T08:37:30;32.70;50.80
35027;DHT22;60696;51.426;6.934;2022-07-17T08:39:56;33.40;50.60
35027;DHT22;60696;51.426;6.934;2022-07-17T08:42:22;33.60;49.40
35027;DHT22;60696;51.426;6.934;2022-07-17T08:44:48;33.90;49.10
35027;DHT22;60696;51.426;6.934;2022-07-17T08:47:15;32.30;50.20
35027;DHT22;60696;51.426;6.934;2022-07-17T08:49:45;29.80;52.60
35027;DHT22;60696;51.426;6.934;2022-07-17T08:52:12;29.80;54.70
35027;DHT22;60696;51.426;6.934;2022-07-17T08:54:38;31.20;53.10
35027;DHT22;60696;51.426;6.934;2022-07-17T08:57:03;32.30;52.30
35027;DHT22;60696;51.426;6.934;2022-07-17T08:59:30;32.80;51.10
35027;DHT22;60696;51.426;6.934;2022-07-17T09:01:55;32.60;50.90
35027;DHT22;60696;51.426;6.934;2022-07-17T09:04:21;32.50;50.00
35027;DHT22;60696;51.426;6.934;2022-07-17T09:07:01;32.40;51.70
35027;DHT22;60696;51.426;6.934;2022-07-17T09:09:27;32.20;51.00
35027;DHT22;60696;51.426;6.934;2022-07-17T09:11:54;32.30;50.20
35027;DHT22;60696;51.426;6.934;2022-07-17T09:14:21;33.60;49.20
35027;DHT22;60696;51.426;6.934;2022-07-17T09:16:55;31.50;50.50
35027;DHT22;60696;51.426;6.934;2022-07-17T09:19:29;30.10;50.80
35027;DHT22;60696;51.426;6.934;2022-07-17T09:24:54;32.00;51.20
35027;DHT22;60696;51.426;6.934;2022-07-17T09:32:24;32.10;49.70
35027;DHT22;60696;51.426;6.934;2022-07-17T09:34:52;31.80;49.70
35027;DHT22;60696;51.426;6.934;2022-07-17T09:37:18;31.70;51.10
35027;DHT22;60696;51.426;6.934;2022-07-17T09:39:44;32.00;48.80
35027;DHT22;60696;51.426;6.934;2022-07-17T09:47:28;30.40;51.30
35027;DHT22;60696;51.426;6.934;2022-07-17T09:49:55;29.50;52.50
35027;DHT22;60696;51.426;6.934;2022-07-17T09:52:27;28.90;52.90
35027;DHT22;60696;51.426;6.934;2022-07-17T09:54:56;28.30;53.90
35027;DHT22;60696;51.426;6.934;2022-07-17T09:57:27;28.10;59.10
35027;DHT22;60696;51.426;6.934;2022-07-17T09:59:54;28.50;54.80
35027;DHT22;60696;51.426;6.934;2022-07-17T10:02:20;28.70;54.50
35027;DHT22;60696;51.426;6.934;2022-07-17T10:04:47;28.30;54.20
35027;DHT22;60696;51.426;6.934;2022-07-17T10:07:13;27.70;56.60
35027;DHT22;60696;51.426;6.934;2022-07-17T10:09:39;27.50;58.80
35027;DHT22;60696;51.426;6.934;2022-07-17T10:12:06;27.70;56.50
35027;DHT22;60696;51.426;6.934;2022-07-17T10:14:36;28.10;54.70
35027;DHT22;60696;51.426;6.934;2022-07-17T10:17:11;28.10;54.60
35027;DHT22;60696;51.426;6.934;2022-07-17T10:20:09;27.80;58.80
35027;DHT22;60696;51.426;6.934;2022-07-17T10:22:46;27.80;55.50
35027;DHT22;60696;51.426;6.934;2022-07-17T10:25:14;27.80;55.10
35027;DHT22;60696;51.426;6.934;2022-07-17T10:28:07;27.40;55.00
35027;DHT22;60696;51.426;6.934;2022-07-17T10:30:33;27.30;55.10
35027;DHT22;60696;51.426;6.934;2022-07-17T10:33:00;27.30;56.20
35027;DHT22;60696;51.426;6.934;2022-07-17T10:35:27;27.50;58.10
35027;DHT22;60696;51.426;6.934;2022-07-17T10:37:58;27.20;56.50
35027;DHT22;60696;51.426;6.934;2022-07-17T10:40:34;27.60;56.00
35027;DHT22;60696;51.426;6.934;2022-07-17T10:43:01;27.40;54.90
35027;DHT22;60696;51.426;6.934;2022-07-17T10:45:38;27.60;54.90
35027;DHT22;60696;51.426;6.934;2022-07-17T10:48:19;26.30;56.50
35027;DHT22;60696;51.426;6.934;2022-07-17T10:50:48;27.10;56.20
35027;DHT22;60696;51.426;6.934;2022-07-17T10:53:19;27.50;57.40
35027;DHT22;60696;51.426;6.934;2022-07-17T10:56:03;27.90;54.20
35027;DHT22;60696;51.426;6.934;2022-07-17T10:58:33;27.80;56.20
35027;DHT22;60696;51.426;6.934;2022-07-17T11:06:16;26.70;58.30
35027;DHT22;60696;51.426;6.934;2022-07-17T11:11:17;27.90;58.30
35027;DHT22;60696;51.426;6.934;2022-07-17T11:13:43;28.00;56.80
35027;DHT22;60696;51.426;6.934;2022-07-17T11:16:09;28.00;57.40
35027;DHT22;60696;51.426;6.934;2022-07-17T11:18:36;27.30;58.60
35027;DHT22;60696;51.426;6.934;2022-07-17T11:21:04;27.80;57.00
35027;DHT22;60696;51.426;6.934;2022-07-17T11:23:32;26.50;57.80
35027;DHT22;60696;51.426;6.934;2022-07-17T11:26:06;26.20;61.00
35027;DHT22;60696;51.426;6.934;2022-07-17T11:28:40;26.80;57.70
35027;DHT22;60696;51.426;6.934;2022-07-17T11:31:23;27.40;58.00
35027;DHT22;60696;51.426;6.934;2022-07-17T11:33:54;27.30;55.60
35027;DHT22;60696;51.426;6.934;2022-07-17T11:36:43;26.40;57.70
35027;DHT22;60696;51.426;6.934;2022-07-17T11:39:14;26.10;58.90
35027;DHT22;60696;51.426;6.934;2022-07-17T11:41:48;26.70;59.70
35027;DHT22;60696;51.426;6.934;2022-07-17T11:44:18;26.80;57.80
35027;DHT22;60696;51.426;6.934;2022-07-17T11:46:46;26.80;59.00
35027;DHT22;60696;51.426;6.934;2022-07-17T11:49:27;26.90;58.90
35027;DHT22;60696;51.426;6.934;2022-07-17T11:51:56;27.00;55.80
35027;DHT22;60696;51.426;6.934;2022-07-17T11:54:22;26.70;57.20
35027;DHT22;60696;51.426;6.934;2022-07-17T11:56:56;26.90;56.80
35027;DHT22;60696;51.426;6.934;2022-07-17T11:59:25;26.90;58.50
35027;DHT22;60696;51.426;6.934;2022-07-17T12:01:51;26.80;59.70
35027;DHT22;60696;51.426;6.934;2022-07-17T12:04:17;26.70;59.20
35027;DHT22;60696;51.426;6.934;2022-07-17T12:06:44;27.10;59.10
35027;DHT22;60696;51.426;6.934;2022-07-17T12:09:10;26.30;56.60
35027;DHT22;60696;51.426;6.934;2022-07-17T12:11:49;26.40;58.40
35027;DHT22;60696;51.426;6.934;2022-07-17T12:14:16;26.50;59.30
35027;DHT22;60696;51.426;6.934;2022-07-17T12:16:42;26.50;58.50
35027;DHT22;60696;51.426;6.934;2022-07-17T12:19:09;26.30;58.90
35027;DHT22;60696;51.426;6.934;2022-07-17T12:21:58;26.40;57.20
35027;DHT22;60696;51.426;6.934;2022-07-17T12:27:09;25.40;57.00
35027;DHT22;60696;51.426;6.934;2022-07-17T12:29:35;25.30;57.40
35027;DHT22;60696;51.426;6.934;2022-07-17T12:34:35;26.70;59.10
35027;DHT22;60696;51.426;6.934;2022-07-17T12:37:01;26.90;57.00
35027;DHT22;60696;51.426;6.934;2022-07-17T12:39:26;27.20;58.20
35027;DHT22;60696;51.426;6.934;2022-07-17T12:41:52;27.20;56.70
35027;DHT22;60696;51.426;6.934;2022-07-17T12:44:18;27.00;54.80
35027;DHT22;60696;51.426;6.934;2022-07-17T12:46:43;26.80;55.70
35027;DHT22;60696;51.426;6.934;2022-07-17T12:49:09;26.40;54.60
35027;DHT22;60696;51.426;6.934;2022-07-17T12:51:35;26.30;57.20
35027;DHT22;60696;51.426;6.934;2022-07-17T12:54:01;26.70;57.00
35027;DHT22;60696;51.426;6.934;2022-07-17T12:56:26;26.60;54.90
35027;DHT22;60696;51.426;6.934;2022-07-17T12:58:53;26.30;54.70
35027;DHT22;60696;51.426;6.934;2022-07-17T13:01:18;26.40;56.20
35027;DHT22;60696;51.426;6.934;2022-07-17T13:03:44;26.70;54.70
35027;DHT22;60696;51.426;6.934;2022-07-17T13:06:10;26.90;56.40
35027;DHT22;60696;51.426;6.934;2022-07-17T13:08:36;26.60;56.80
35027;DHT22;60696;51.426;6.934;2022-07-17T13:11:03;27.10;55.30
35027;DHT22;60696;51.426;6.934;2022-07-17T13:13:29;26.70;55.60
35027;DHT22;60696;51.426;6.934;2022-07-17T13:15:56;26.60;55.70
35027;DHT22;60696;51.426;6.934;2022-07-17T13:18:22;26.40;54.90
35027;DHT22;60696;51.426;6.934;2022-07-17T13:20:48;26.20;54.10
35027;DHT22;60696;51.426;6.934;2022-07-17T13:23:14;26.50;55.90
35027;DHT22;60696;51.426;6.934;2022-07-17T13:25:39;26.50;54.70
35027;DHT22;60696;51.426;6.934;2022-07-17T13:28:06;26.40;54.20
35027;DHT22;60696;51.426;6.934;2022-07-17T13:30:33;26.20;53.60
35027;DHT22;60696;51.426;6.934;2022-07-17T13:32:59;26.10;54.90
35027;DHT22;60696;51.426;6.934;2022-07-17T13:35:25;26.00;55.90
35027;DHT22;60696;51.426;6.934;2022-07-17T13:37:51;26.20;54.40
35027;DHT22;60696;51.426;6.934;2022-07-17T13:40:17;26.30;54.60
35027;DHT22;60696;51.426;6.934;2022-07-17T13:42:44;26.10;55.70
35027;DHT22;60696;51.426;6.934;2022-07-17T13:45:11;25.80;54.80
35027;DHT22;60696;51.426;6.934;2022-07-17T13:47:38;26.00;54.00
35027;DHT22;60696;51.426;6.934;2022-07-17T13:50:05;26.10;54.00
35027;DHT22;60696;51.426;6.934;2022-07-17T13:52:31;26.10;54.40
35027;DHT22;60696;51.426;6.934;2022-07-17T13:54:56;26.30;54.10
35027;DHT22;60696;51.426;6.934;2022-07-17T13:57:22;26.20;53.20
35027;DHT22;60696;51.426;6.934;2022-07-17T13:59:48;26.30;53.00
35027;DHT22;60696;51.426;6.934;2022-07-17T14:02:14;26.30;53.10
35027;DHT22;60696;51.426;6.934;2022-07-17T14:04:40;26.40;53.00
35027;DHT22;60696;51.426;6.934;2022-07-17T14:07:07;26.70;53.40
35027;DHT22;60696;51.426;6.934;2022-07-17T14:09:32;26.90;53.40
35027;DHT22;60696;51.426;6.934;2022-07-17T14:11:58;26.80;52.90
35027;DHT22;60696;51.426;6.934;2022-07-17T14:14:24;26.90;53.40
35027;DHT22;60696;51.426;6.934;2022-07-17T14:16:50;26.90;52.40
35027;DHT22;60696;51.426;6.934;2022-07-17T14:19:16;26.70;52.40
35027;DHT22;60696;51.426;6.934;2022-07-17T14:21:42;26.50;51.80
35027;DHT22;60696;51.426;6.934;2022-07-17T14:24:08;26.70;52.70
35027;DHT22;60696;51.426;6.934;2022-07-17T14:26:34;26.40;52.20
35027;DHT22;60696;51.426;6.934;2022-07-17T14:29:00;26.30;52.40
35027;DHT22;60696;51.426;6.934;2022-07-17T14:31:27;26.50;52.60
35027;DHT22;60696;51.426;6.934;2022-07-17T14:33:53;26.40;51.60
35027;DHT22;60696;51.426;6.934;2022-07-17T14:36:18;26.40;51.90
35027;DHT22;60696;51.426;6.934;2022-07-17T14:38:44;26.40;51.70
35027;DHT22;60696;51.426;6.934;2022-07-17T14:41:10;26.50;53.70
35027;DHT22;60696;51.426;6.934;2022-07-17T14:43:36;26.40;53.80
35027;DHT22;60696;51.426;6.934;2022-07-17T14:46:02;26.30;54.30
35027;DHT22;60696;51.426;6.934;2022-07-17T14:48:27;25.90;52.70
35027;DHT22;60696;51.426;6.934;2022-07-17T14:50:53;26.10;53.60
35027;DHT22;60696;51.426;6.934;2022-07-17T14:53:19;26.30;53.00
35027;DHT22;60696;51.426;6.934;2022-07-17T14:55:48;26.30;53.10
35027;DHT22;60696;51.426;6.934;2022-07-17T14:58:13;26.40;53.00
35027;DHT22;60696;51.426;6.934;2022-07-17T15:00:39;26.40;52.20
35027;DHT22;60696;51.426;6.934;2022-07-17T15:03:05;26.30;51.80
35027;DHT22;60696;51.426;6.934;2022-07-17T15:05:31;26.30;51.50
35027;DHT22;60696;51.426;6.934;2022-07-17T15:07:57;26.20;51.60
35027;DHT22;60696;51.426;6.934;2022-07-17T15:10:23;26.20;51.40
35027;DHT22;60696;51.426;6.934;2022-07-17T15:12:48;25.80;51.00
35027;DHT22;60696;51.426;6.934;2022-07-17T15:15:14;25.60;49.80
35027;DHT22;60696;51.426;6.934;2022-07-17T15:17:40;25.70;51.20
35027;DHT22;60696;51.426;6.934;2022-07-17T15:20:06;26.10;51.90
35027;DHT22;60696;51.426;6.934;2022-07-17T15:22:32;26.40;51.00
35027;DHT22;60696;51.426;6.934;2022-07-17T15:24:59;26.50;50.80
35027;DHT22;60696;51.426;6.934;2022-07-17T15:27:25;26.60;50.10
35027;DHT22;60696;51.426;6.934;2022-07-17T15:29:51;26.20;49.50
35027;DHT22;60696;51.426;6.934;2022-07-17T15:32:17;26.10;48.40
35027;DHT22;60696;51.426;6.934;2022-07-17T15:34:43;25.90;49.10
35027;DHT22;60696;51.426;6.934;2022-07-17T15:37:08;26.10;48.60
35027;DHT22;60696;51.426;6.934;2022-07-17T15:39:34;26.20;47.80
35027;DHT22;60696;51.426;6.934;2022-07-17T15:42:00;26.20;48.30
35027;DHT22;60696;51.426;6.934;2022-07-17T15:44:26;26.00;48.30
35027;DHT22;60696;51.426;6.934;2022-07-17T15:46:52;26.10;49.30
35027;DHT22;60696;51.426;6.934;2022-07-17T15:49:18;26.20;49.10
35027;DHT22;60696;51.426;6.934;2022-07-17T15:51:46;26.20;48.30
35027;DHT22;60696;51.426;6.934;2022-07-17T15:54:12;26.20;49.00
35027;DHT22;60696;51.426;6.934;2022-07-17T15:56:38;26.30;50.20